createdAt,value
2018-11-05T00:01:13.536Z,87.15
2018-11-05T00:03:41.876Z,87.31
2018-11-05T00:06:10.212Z,87.01
2018-11-05T00:08:38.556Z,85.62
2018-11-05T00:11:06.904Z,86.34
2018-11-05T00:13:35.232Z,86.59
2018-11-05T00:16:03.549Z,86.58
2018-11-05T00:18:31.956Z,86.76
2018-11-05T00:21:00.268Z,86.68
2018-11-05T00:23:28.604Z,86.50
2018-11-05T00:25:56.920Z,87.36
2018-11-05T00:28:25.324Z,86.84
2018-11-05T00:30:53.635Z,87.25
2018-11-05T00:33:21.961Z,87.23
2018-11-05T00:35:50.255Z,87.07
2018-11-05T00:38:18.589Z,87.41
2018-11-05T00:40:46.900Z,87.26
2018-11-05T00:43:15.243Z,87.16
2018-11-05T00:45:43.614Z,87.29
2018-11-05T00:48:11.872Z,86.68
2018-11-05T00:50:40.189Z,87.01
2018-11-05T00:53:08.501Z,86.95
2018-11-05T00:55:36.829Z,86.59
2018-11-05T00:58:05.444Z,86.34
2018-11-05T01:00:33.772Z,86.73
2018-11-05T01:03:02.204Z,86.81
2018-11-05T01:05:30.528Z,86.90
2018-11-05T01:07:58.876Z,86.73
2018-11-05T01:10:27.204Z,86.29
2018-11-05T01:12:55.515Z,86.61
2018-11-05T01:15:23.840Z,87.47
2018-11-05T01:17:52.260Z,87.30
2018-11-05T01:20:20.591Z,86.76
2018-11-05T01:22:48.905Z,86.52
2018-11-05T01:25:17.219Z,86.78
2018-11-05T01:27:45.518Z,86.95
2018-11-05T01:30:14.195Z,87.01
2018-11-05T01:32:42.560Z,86.94
2018-11-05T01:35:12.079Z,86.61
2018-11-05T01:37:40.394Z,86.85
2018-11-05T01:40:11.223Z,87.50
2018-11-05T01:42:39.551Z,88.24
2018-11-05T01:45:09.582Z,87.84
2018-11-05T01:47:37.958Z,87.58
2018-11-05T01:50:07.743Z,87.26
2018-11-05T01:52:36.057Z,87.43
2018-11-05T01:55:04.527Z,86.92
2018-11-05T01:57:32.824Z,87.10
2018-11-05T02:00:01.127Z,87.55
2018-11-05T02:02:29.475Z,87.82
2018-11-05T02:04:57.919Z,87.76
2018-11-05T02:07:26.415Z,88.07
2018-11-05T02:09:54.727Z,87.98
2018-11-05T02:12:23.080Z,88.09
2018-11-05T02:14:51.402Z,87.36
2018-11-05T02:17:19.724Z,87.09
2018-11-05T02:19:49.315Z,87.49
2018-11-05T02:22:17.643Z,87.28
2018-11-05T02:24:45.955Z,87.63
2018-11-05T02:27:14.385Z,87.48
2018-11-05T02:29:42.612Z,87.36
2018-11-05T02:32:11.147Z,87.51
2018-11-05T02:34:39.515Z,87.01
2018-11-05T02:37:07.816Z,86.94
2018-11-05T02:39:36.143Z,87.49
2018-11-05T02:42:04.562Z,87.77
2018-11-05T02:44:32.847Z,87.95
2018-11-05T02:47:01.347Z,87.75
2018-11-05T02:49:29.621Z,87.48
2018-11-05T02:51:57.899Z,87.72
2018-11-05T02:54:26.264Z,87.86
2018-11-05T02:56:54.585Z,87.58
2018-11-05T02:59:22.925Z,87.43
2018-11-05T03:01:51.389Z,87.03
2018-11-05T03:04:19.725Z,87.81
2018-11-05T03:06:48.064Z,88.57
2018-11-05T03:09:16.431Z,88.41
2018-11-05T03:11:44.759Z,88.06
2018-11-05T03:14:13.101Z,87.95
2018-11-05T03:16:41.592Z,88.01
2018-11-05T03:19:09.924Z,87.57
2018-11-05T03:21:38.244Z,87.44
2018-11-05T03:24:06.622Z,87.43
2018-11-05T03:26:34.936Z,87.38
2018-11-05T03:29:03.309Z,87.24
2018-11-05T03:31:31.656Z,87.46
2018-11-05T03:34:00.081Z,87.60
2018-11-05T03:36:28.408Z,87.79
2018-11-05T03:38:57.000Z,88.25
2018-11-05T03:41:25.334Z,88.42
2018-11-05T03:43:53.651Z,88.22
2018-11-05T03:46:22.012Z,88.56
2018-11-05T03:48:50.340Z,89.90
2018-11-05T03:51:18.661Z,89.10
2018-11-05T03:53:47.897Z,88.65
2018-11-05T03:56:16.320Z,88.61
2018-11-05T03:58:44.556Z,88.51
2018-11-05T04:01:12.940Z,88.36
2018-11-05T04:03:41.269Z,88.05
2018-11-05T04:06:09.602Z,88.11
2018-11-05T04:08:38.100Z,88.13
2018-11-05T04:11:06.493Z,87.92
2018-11-05T04:13:34.803Z,88.00
2018-11-05T04:16:03.244Z,88.01
2018-11-05T04:18:31.900Z,88.02
2018-11-05T04:21:00.227Z,87.47
2018-11-05T04:23:28.732Z,87.64
2018-11-05T04:25:57.060Z,87.28
2018-11-05T04:28:25.369Z,87.50
2018-11-05T04:30:53.700Z,87.25
2018-11-05T04:33:22.036Z,87.33
2018-11-05T04:35:50.360Z,86.92
2018-11-05T04:38:18.745Z,87.79
2018-11-05T04:40:47.054Z,87.52
2018-11-05T04:43:15.411Z,87.93
2018-11-05T04:45:43.728Z,87.37
2018-11-05T04:48:12.072Z,88.14
2018-11-05T04:50:40.376Z,88.83
2018-11-05T04:53:08.711Z,88.23
2018-11-05T04:55:37.037Z,88.16
2018-11-05T04:58:05.416Z,88.30
2018-11-05T05:00:33.745Z,88.03
2018-11-05T05:03:02.116Z,88.22
2018-11-05T05:05:30.452Z,88.18
2018-11-05T05:07:58.777Z,87.63
2018-11-05T05:10:27.153Z,87.94
2018-11-05T05:12:55.476Z,87.47
2018-11-05T05:15:23.843Z,87.18
2018-11-05T05:17:52.149Z,87.02
2018-11-05T05:20:20.499Z,87.88
2018-11-05T05:22:48.992Z,87.79
2018-11-05T05:25:17.175Z,87.21
2018-11-05T05:27:45.571Z,87.06
2018-11-05T05:30:17.672Z,87.22
2018-11-05T05:32:46.846Z,87.57
2018-11-05T05:35:15.658Z,87.48
2018-11-05T05:37:44.108Z,87.45
2018-11-05T05:40:12.500Z,87.73
2018-11-05T05:42:41.276Z,88.53
2018-11-05T05:45:10.921Z,88.51
2018-11-05T05:47:39.472Z,88.37
2018-11-05T05:50:10.806Z,87.94
2018-11-05T05:52:39.197Z,89.57
2018-11-05T05:55:08.018Z,89.87
2018-11-05T05:57:36.460Z,89.84
2018-11-05T06:00:08.177Z,89.51
2018-11-05T06:02:36.700Z,90.28
2018-11-05T06:05:06.524Z,90.06
2018-11-05T06:07:34.822Z,89.60
2018-11-05T06:10:03.122Z,88.87
2018-11-05T06:12:31.458Z,88.48
2018-11-05T06:14:59.734Z,87.95
2018-11-05T06:17:28.038Z,88.58
2018-11-05T06:19:56.316Z,88.62
2018-11-05T06:22:24.706Z,88.07
2018-11-05T06:24:53.006Z,88.96
2018-11-05T06:27:21.282Z,88.84
2018-11-05T06:29:49.762Z,88.88
2018-11-05T06:32:18.062Z,88.96
2018-11-05T06:34:46.322Z,88.49
2018-11-05T06:37:14.638Z,88.40
2018-11-05T06:39:42.914Z,87.96
2018-11-05T06:42:11.206Z,88.19
2018-11-05T06:44:39.482Z,88.90
2018-11-05T06:47:07.758Z,88.66
2018-11-05T06:49:36.030Z,88.17
2018-11-05T06:52:04.502Z,88.46
2018-11-05T06:54:32.799Z,88.38
2018-11-05T06:57:01.066Z,88.01
2018-11-05T06:59:29.358Z,88.02
2018-11-05T07:01:57.629Z,88.16
2018-11-05T07:04:25.922Z,88.41
2018-11-05T07:06:54.198Z,88.48
2018-11-05T07:09:23.562Z,88.55
2018-11-05T07:11:51.821Z,88.07
2018-11-05T07:14:20.176Z,88.57
2018-11-05T07:16:48.498Z,88.47
2018-11-05T07:19:16.896Z,88.42
2018-11-05T07:21:45.168Z,88.09
2018-11-05T07:24:13.633Z,88.50
2018-11-05T07:26:42.053Z,87.54
2018-11-05T07:29:10.327Z,87.28
2018-11-05T07:31:38.632Z,87.08
2018-11-05T07:34:07.178Z,86.87
2018-11-05T07:36:35.332Z,86.27
2018-11-05T07:39:03.772Z,86.63
2018-11-05T07:41:32.079Z,86.56
2018-11-05T07:44:00.419Z,86.40
2018-11-05T07:46:28.735Z,86.54
2018-11-05T07:48:57.114Z,86.80
2018-11-05T07:51:25.432Z,87.47
2018-11-05T07:53:53.744Z,87.32
2018-11-05T07:56:22.202Z,86.99
2018-11-05T07:58:50.412Z,87.02
2018-11-05T08:01:18.743Z,86.95
2018-11-05T08:03:47.103Z,86.20
2018-11-05T08:06:17.419Z,86.37
2018-11-05T08:08:45.824Z,85.91
2018-11-05T08:11:14.851Z,86.82
2018-11-05T08:13:43.168Z,86.45
2018-11-05T08:16:11.577Z,85.98
2018-11-05T08:18:39.879Z,85.96
2018-11-05T08:21:08.263Z,86.48
2018-11-05T08:23:36.605Z,85.97
2018-11-05T08:26:05.556Z,85.91
2018-11-05T08:31:23.584Z,85.03
2018-11-05T08:33:51.905Z,85.26
2018-11-05T08:36:20.264Z,85.75
2018-11-05T08:38:48.624Z,85.64
2018-11-05T08:41:17.030Z,85.56
2018-11-05T08:43:45.356Z,84.40
2018-11-05T08:46:13.732Z,84.79
2018-11-05T08:48:42.066Z,84.73
2018-11-05T08:51:10.546Z,84.52
2018-11-05T08:53:38.769Z,84.66
2018-11-05T08:56:07.152Z,84.57
2018-11-05T08:58:35.516Z,85.16
2018-11-05T09:01:09.355Z,84.56
2018-11-05T09:03:37.603Z,84.90
2018-11-05T09:06:06.376Z,84.37
2018-11-05T09:08:34.896Z,85.20
2018-11-05T09:11:03.582Z,85.55
2018-11-05T09:13:31.600Z,85.85
2018-11-05T09:15:59.937Z,85.57
2018-11-05T09:18:28.457Z,85.75
2018-11-05T09:20:56.912Z,85.60
2018-11-05T09:23:25.195Z,85.15
2018-11-05T09:25:53.775Z,85.18
2018-11-05T09:28:22.104Z,85.04
2018-11-05T09:30:50.430Z,84.71
2018-11-05T09:33:18.856Z,84.58
2018-11-05T09:35:47.211Z,84.04
2018-11-05T09:38:15.544Z,83.69
2018-11-05T09:40:43.956Z,84.07
2018-11-05T09:43:12.292Z,83.63
2018-11-05T09:45:40.620Z,83.59
2018-11-05T09:48:08.952Z,83.76
2018-11-05T09:50:37.354Z,83.72
2018-11-05T09:53:05.945Z,83.68
2018-11-05T09:55:34.352Z,82.99
2018-11-05T09:58:02.660Z,83.10
2018-11-05T10:00:31.000Z,82.98
2018-11-05T10:03:18.016Z,83.02
2018-11-05T10:05:46.420Z,83.58
2018-11-05T10:08:15.738Z,83.45
2018-11-05T10:10:44.080Z,84.21
2018-11-05T10:13:12.432Z,83.27
2018-11-05T10:15:40.776Z,82.47
2018-11-05T10:18:09.237Z,82.17
2018-11-05T10:20:37.580Z,82.84
2018-11-05T10:23:06.060Z,82.11
2018-11-05T10:25:34.400Z,82.35
2018-11-05T10:28:05.018Z,83.24
2018-11-05T10:30:33.520Z,83.00
2018-11-05T10:33:01.901Z,83.08
2018-11-05T10:35:35.837Z,83.42
2018-11-05T10:38:04.176Z,83.92
2018-11-05T10:40:32.610Z,83.50
2018-11-05T10:43:00.967Z,83.58
2018-11-05T10:45:29.257Z,83.09
2018-11-05T10:47:57.588Z,82.67
2018-11-05T10:50:26.339Z,83.11
2018-11-05T10:52:54.628Z,82.97
2018-11-05T10:55:22.956Z,83.50
2018-11-05T10:57:51.305Z,82.88
2018-11-05T11:00:26.492Z,82.70
2018-11-05T11:03:00.308Z,82.58
2018-11-05T11:05:29.634Z,82.91
2018-11-05T11:07:58.920Z,82.78
2018-11-05T11:10:28.144Z,84.12
2018-11-05T11:12:56.693Z,85.19
2018-11-05T11:15:25.155Z,84.25
2018-11-05T11:17:53.832Z,83.70
2018-11-05T11:20:22.161Z,84.25
2018-11-05T11:22:50.493Z,84.07
2018-11-05T11:25:18.972Z,83.39
2018-11-05T11:27:47.377Z,83.56
2018-11-05T11:30:16.372Z,83.43
2018-11-05T11:32:45.276Z,82.98
2018-11-05T11:35:13.944Z,84.38
2018-11-05T11:37:42.324Z,84.36
2018-11-05T11:40:14.078Z,84.25
2018-11-05T11:42:43.480Z,84.55
2018-11-05T11:45:12.784Z,84.81
2018-11-05T11:47:41.133Z,84.83
2018-11-05T11:50:11.605Z,85.51
2018-11-05T11:52:40.141Z,85.68
2018-11-05T11:55:10.627Z,85.93
2018-11-05T11:57:39.324Z,86.34
2018-11-05T12:00:10.428Z,85.16
2018-11-05T12:02:38.780Z,85.15
2018-11-05T12:05:08.044Z,85.36
2018-11-05T12:07:36.486Z,84.88
2018-11-05T12:10:07.684Z,84.83
2018-11-05T12:12:36.021Z,84.27
2018-11-05T12:15:04.621Z,84.91
2018-11-05T12:17:32.752Z,84.36
2018-11-05T12:20:01.092Z,84.25
2018-11-05T12:22:29.516Z,83.74
2018-11-05T12:24:57.900Z,85.11
2018-11-05T12:27:26.172Z,84.29
2018-11-05T12:29:54.551Z,84.46
2018-11-05T12:32:22.908Z,83.53
2018-11-05T12:34:51.217Z,83.14
2018-11-05T12:37:19.968Z,83.99
2018-11-05T12:39:48.301Z,84.38
2018-11-05T12:42:16.632Z,84.54
2018-11-05T12:44:45.041Z,84.48
2018-11-05T12:47:13.440Z,83.66
2018-11-05T12:49:41.758Z,83.81
2018-11-05T12:52:10.079Z,83.16
2018-11-05T12:54:38.440Z,83.58
2018-11-05T12:57:06.768Z,83.40
2018-11-05T12:59:35.105Z,84.06
2018-11-05T13:02:03.434Z,84.27
2018-11-05T13:04:31.776Z,83.19
2018-11-05T13:07:00.307Z,83.32
2018-11-05T13:09:28.732Z,83.47
2018-11-05T13:11:57.272Z,84.58
2018-11-05T13:14:26.336Z,84.45
2018-11-05T13:16:55.032Z,84.13
2018-11-05T13:19:23.368Z,84.35
2018-11-05T13:21:51.692Z,83.54
2018-11-05T13:24:20.274Z,84.56
2018-11-05T13:26:48.688Z,84.36
2018-11-05T13:29:17.165Z,84.44
2018-11-05T13:31:45.512Z,84.50
2018-11-05T13:34:13.857Z,85.30
2018-11-05T13:36:42.422Z,85.48
2018-11-05T13:39:10.797Z,85.55
2018-11-05T13:41:39.269Z,87.46
2018-11-05T13:44:07.629Z,87.83
2018-11-05T13:46:36.351Z,86.42
2018-11-05T13:49:04.978Z,85.96
2018-11-05T13:51:32.693Z,86.32
2018-11-05T13:54:01.060Z,85.74
2018-11-05T13:56:29.392Z,85.24
2018-11-05T13:58:57.735Z,87.20
2018-11-05T14:01:26.069Z,86.49
2018-11-05T14:03:54.422Z,85.83
2018-11-05T14:06:23.772Z,86.31
2018-11-05T14:08:52.123Z,86.04
2018-11-05T14:11:20.451Z,86.00
2018-11-05T14:13:48.803Z,85.36
2018-11-05T14:16:17.140Z,85.62
2018-11-05T14:18:45.493Z,86.15
2018-11-05T14:21:13.836Z,86.51
2018-11-05T14:23:42.185Z,86.68
2018-11-05T14:26:10.703Z,86.92
2018-11-05T14:28:39.119Z,86.48
2018-11-05T14:31:07.239Z,87.08
2018-11-05T14:33:36.677Z,87.03
2018-11-05T14:36:05.025Z,86.98
2018-11-05T14:38:33.464Z,85.86
2018-11-05T14:41:01.772Z,86.10
2018-11-05T14:43:30.117Z,85.75
2018-11-05T14:45:58.489Z,85.88
2018-11-05T14:48:26.836Z,85.55
2018-11-05T14:50:55.178Z,85.51
2018-11-05T14:53:23.640Z,85.70
2018-11-05T14:55:51.973Z,85.81
2018-11-05T14:58:20.301Z,85.66
2018-11-05T15:00:48.780Z,86.07
2018-11-05T15:03:17.120Z,85.35
2018-11-05T15:05:45.560Z,85.18
2018-11-05T15:08:13.912Z,84.77
2018-11-05T15:10:42.231Z,85.23
2018-11-05T15:13:10.604Z,85.66
2018-11-05T15:15:38.928Z,86.18
2018-11-05T15:18:07.340Z,85.45
2018-11-05T15:20:35.572Z,85.37
2018-11-05T15:23:03.942Z,85.95
2018-11-05T15:25:32.419Z,86.21
2018-11-05T15:28:00.680Z,85.58
2018-11-05T15:30:29.015Z,85.46
2018-11-05T15:32:57.354Z,85.85
2018-11-05T15:35:25.672Z,85.82
2018-11-05T15:37:54.019Z,85.91
2018-11-05T15:40:22.657Z,87.17
2018-11-05T15:42:51.000Z,86.54
2018-11-05T15:45:20.641Z,85.74
2018-11-05T15:47:48.984Z,85.20
2018-11-05T15:50:18.633Z,85.84
2018-11-05T15:52:47.273Z,85.18
2018-11-05T15:55:15.595Z,87.65
2018-11-05T15:57:43.948Z,86.42
2018-11-05T16:00:15.525Z,86.34
2018-11-05T16:02:44.872Z,85.42
2018-11-05T16:05:13.274Z,86.72
2018-11-05T16:07:41.613Z,86.45
2018-11-05T16:10:09.985Z,86.81
2018-11-05T16:12:38.739Z,87.11
2018-11-05T16:15:08.148Z,86.74
2018-11-05T16:17:37.044Z,86.70
2018-11-05T16:20:06.637Z,86.95
2018-11-05T16:22:35.063Z,87.26
2018-11-05T16:25:03.433Z,86.81
2018-11-05T16:27:32.161Z,87.70
2018-11-05T16:30:00.667Z,87.94
2018-11-05T16:32:29.012Z,87.98
2018-11-05T16:34:58.052Z,87.94
2018-11-05T16:37:26.327Z,88.33
2018-11-05T16:39:54.740Z,88.12
2018-11-05T16:42:23.389Z,89.15
2018-11-05T16:44:51.724Z,88.46
2018-11-05T16:47:20.065Z,88.21
2018-11-05T16:49:49.067Z,87.78
2018-11-05T16:52:17.393Z,87.95
2018-11-05T16:54:45.808Z,86.12
2018-11-05T16:57:14.213Z,86.75
2018-11-05T16:59:42.704Z,86.88
2018-11-05T17:02:14.585Z,87.76
2018-11-05T17:04:43.733Z,86.77
2018-11-05T17:07:12.066Z,85.69
2018-11-05T17:09:40.405Z,87.09
2018-11-05T17:12:08.941Z,86.75
2018-11-05T17:14:37.597Z,87.39
2018-11-05T17:17:05.961Z,87.87
2018-11-05T17:19:34.636Z,86.09
2018-11-05T17:22:03.056Z,86.83
2018-11-05T17:24:31.393Z,86.64
2018-11-05T17:26:59.757Z,86.07
2018-11-05T17:29:28.080Z,86.08
2018-11-05T17:31:56.549Z,86.22
2018-11-05T17:34:24.992Z,84.67
2018-11-05T17:36:53.541Z,86.84
2018-11-05T17:39:21.868Z,87.27
2018-11-05T17:41:50.314Z,86.86
2018-11-05T17:44:18.650Z,86.45
2018-11-05T17:46:46.984Z,88.15
2018-11-05T17:49:15.444Z,87.15
2018-11-05T17:51:43.773Z,87.41
2018-11-05T17:54:12.109Z,86.53
2018-11-05T17:56:40.524Z,88.56
2018-11-05T17:59:08.936Z,88.60
2018-11-05T18:01:37.303Z,87.66
2018-11-05T18:04:06.346Z,87.59
2018-11-05T18:06:34.624Z,88.29
2018-11-05T18:09:03.022Z,88.29
2018-11-05T18:11:31.397Z,88.13
2018-11-05T18:13:59.779Z,87.48
2018-11-05T18:16:28.112Z,87.63
2018-11-05T18:18:56.523Z,86.88
2018-11-05T18:21:24.868Z,86.45
2018-11-05T18:23:53.203Z,86.81
2018-11-05T18:26:21.525Z,88.19
2018-11-05T18:28:51.091Z,87.54
2018-11-05T18:31:19.497Z,87.30
2018-11-05T18:33:47.748Z,86.52
2018-11-05T18:36:16.156Z,86.29
2018-11-05T18:38:44.505Z,85.54
2018-11-05T18:41:12.849Z,85.74
2018-11-05T18:43:41.204Z,85.04
2018-11-05T18:46:09.549Z,84.88
2018-11-05T18:48:37.913Z,84.63
2018-11-05T18:51:06.328Z,84.79
2018-11-05T18:53:34.765Z,84.43
2018-11-05T18:56:03.366Z,83.91
2018-11-05T18:58:31.725Z,84.57
2018-11-05T19:01:00.062Z,85.17
2018-11-05T19:03:28.515Z,85.74
2018-11-05T19:05:56.865Z,85.99
2018-11-05T19:08:25.197Z,85.30
2018-11-05T19:10:53.541Z,85.08
2018-11-05T19:13:22.429Z,84.87
2018-11-05T19:15:50.840Z,85.40
2018-11-05T19:18:19.112Z,85.43
2018-11-05T19:20:47.517Z,85.14
2018-11-05T19:23:15.913Z,85.16
2018-11-05T19:25:44.358Z,84.65
2018-11-05T19:28:12.893Z,85.69
2018-11-05T19:30:41.337Z,85.40
2018-11-05T19:33:09.650Z,86.06
2018-11-05T19:35:38.005Z,87.01
2018-11-05T19:38:06.352Z,86.71
2018-11-05T19:40:34.688Z,86.38
2018-11-05T19:43:03.055Z,86.33
2018-11-05T19:45:31.412Z,86.37
2018-11-05T19:47:59.745Z,86.45
2018-11-05T19:50:28.104Z,87.28
2018-11-05T19:52:56.450Z,87.37
2018-11-05T19:55:24.863Z,86.83
2018-11-05T19:57:53.694Z,86.40
2018-11-05T20:00:27.903Z,86.03
2018-11-05T20:02:57.259Z,85.57
2018-11-05T20:05:25.679Z,85.41
2018-11-05T20:07:54.780Z,85.06
2018-11-05T20:10:23.175Z,85.85
2018-11-05T20:12:51.553Z,86.24
2018-11-05T20:15:20.012Z,86.24
2018-11-05T20:17:49.225Z,86.33
2018-11-05T20:20:19.021Z,86.18
2018-11-05T20:22:47.470Z,85.73
2018-11-05T20:25:15.797Z,85.74
2018-11-05T20:27:44.364Z,86.12
2018-11-05T20:30:17.341Z,85.99
2018-11-05T20:32:46.936Z,85.46
2018-11-05T20:35:15.226Z,85.48
2018-11-05T20:37:43.624Z,85.83
2018-11-05T20:40:14.285Z,86.06
2018-11-05T20:42:43.755Z,86.18
2018-11-05T20:45:12.124Z,86.63
2018-11-05T20:47:40.825Z,86.60
2018-11-05T20:50:10.005Z,86.29
2018-11-05T20:52:38.685Z,86.67
2018-11-05T20:55:08.217Z,86.58
2018-11-05T20:57:36.608Z,86.48
2018-11-05T21:00:05.938Z,87.17
2018-11-05T21:02:34.304Z,87.29
2018-11-05T21:05:03.302Z,87.50
2018-11-05T21:07:31.871Z,87.16
2018-11-05T21:10:01.301Z,88.45
2018-11-05T21:12:29.692Z,87.63
2018-11-05T21:14:58.040Z,88.73
2018-11-05T21:17:26.355Z,88.69
2018-11-05T21:19:54.820Z,88.83
2018-11-05T21:22:23.191Z,88.89
2018-11-05T21:24:51.473Z,89.51
2018-11-05T21:27:19.808Z,89.89
2018-11-05T21:29:48.181Z,89.44
2018-11-05T21:32:16.507Z,89.78
2018-11-05T21:34:44.941Z,89.39
2018-11-05T21:37:13.230Z,88.85
2018-11-05T21:39:41.568Z,88.84
2018-11-05T21:42:10.100Z,89.20
2018-11-05T21:44:38.440Z,90.09
2018-11-05T21:47:06.771Z,90.56
2018-11-05T21:49:35.176Z,90.47
2018-11-05T21:52:03.525Z,91.09
2018-11-05T21:54:31.940Z,91.44
2018-11-05T21:57:00.552Z,91.30
2018-11-05T21:59:28.880Z,90.81
2018-11-05T22:01:57.244Z,90.71
2018-11-05T22:04:26.725Z,90.62
2018-11-05T22:06:55.085Z,90.44
2018-11-05T22:09:23.444Z,90.58
2018-11-05T22:11:51.818Z,91.14
2018-11-05T22:14:20.208Z,91.59
2018-11-05T22:16:48.534Z,90.75
2018-11-05T22:19:16.895Z,90.64
2018-11-05T22:21:45.241Z,90.18
2018-11-05T22:24:13.593Z,90.36
2018-11-05T22:26:41.944Z,90.29
2018-11-05T22:29:10.329Z,90.47
2018-11-05T22:31:38.646Z,90.75
2018-11-05T22:34:06.975Z,90.75
2018-11-05T22:36:36.283Z,90.69
2018-11-05T22:39:06.323Z,90.54
2018-11-05T22:41:34.715Z,90.37
2018-11-05T22:44:03.031Z,90.90
2018-11-05T22:46:31.339Z,90.70
2018-11-05T22:48:59.647Z,90.51
2018-11-05T22:51:28.095Z,91.10
2018-11-05T22:53:56.417Z,91.05
2018-11-05T22:56:24.762Z,90.90
2018-11-05T22:58:53.067Z,91.12
2018-11-05T23:01:26.651Z,91.28
2018-11-05T23:03:54.993Z,91.08
2018-11-05T23:06:23.316Z,91.02
2018-11-05T23:08:51.688Z,91.04
2018-11-05T23:11:20.000Z,91.10
2018-11-05T23:13:48.600Z,91.33
2018-11-05T23:16:16.972Z,91.43
2018-11-05T23:18:45.309Z,91.80
2018-11-05T23:21:13.649Z,91.41
2018-11-05T23:23:42.046Z,91.74
2018-11-05T23:26:10.368Z,91.69
2018-11-05T23:28:38.736Z,92.02
2018-11-05T23:31:07.064Z,91.91
2018-11-05T23:33:35.465Z,91.89
2018-11-05T23:36:04.109Z,91.66
2018-11-05T23:38:32.469Z,91.71
2018-11-05T23:41:00.914Z,93.18
2018-11-05T23:43:29.156Z,93.62
2018-11-05T23:45:57.512Z,93.81
2018-11-05T23:48:25.820Z,92.89
2018-11-05T23:50:54.200Z,92.99
2018-11-05T23:53:22.507Z,92.94
2018-11-05T23:55:50.827Z,93.48
2018-11-05T23:58:19.159Z,92.73
